< < Back
Terminal Aerodrome Forecast


Current Version              Previous Versions:   1  2  3  4  5  6  7  8  9  

Terminal Aerodrome Forecast

438
FTUS44 KMRX 231502 AAB
TAFTYS
TAF AMD
KTYS 231502Z 2315/2412 07010G18KT P6SM FEW035
     FM231800 03008KT P6SM FEW250
     FM240000 00000KT P6SM SKC=



Latest METAR

762
SAUS80 KWBC 240800 RRB
MTRTYS
METAR KTYS 240753Z 03007KT 10SM OVC250 08/06 A3008 RMK AO2 SLP185
T00830056


USA.gov is the U.S. government's official web portal to all federal, state and local government web resources and services.